createdAt,value
2018-12-18T00:00:09.782Z,945.1
2018-12-18T00:01:09.897Z,945
2018-12-18T00:02:09.789Z,945.1
2018-12-18T00:03:09.684Z,945.1
2018-12-18T00:04:09.617Z,945.1
2018-12-18T00:05:09.952Z,945.1
2018-12-18T00:06:09.859Z,945.1
2018-12-18T00:07:09.801Z,945.1
2018-12-18T00:08:09.701Z,945
2018-12-18T00:09:09.593Z,945.1
2018-12-18T00:10:09.508Z,945
2018-12-18T00:11:09.405Z,945.1
2018-12-18T00:12:09.302Z,945.1
2018-12-18T00:13:09.190Z,945.1
2018-12-18T00:14:09.089Z,945.1
2018-12-18T00:15:09.542Z,944.9
2018-12-18T00:16:09.431Z,945.1
2018-12-18T00:17:09.580Z,945
2018-12-18T00:18:09.464Z,944.9
2018-12-18T00:19:09.370Z,944.9
2018-12-18T00:20:09.118Z,945
2018-12-18T00:21:08.913Z,945
2018-12-18T00:22:08.632Z,945
2018-12-18T00:23:08.386Z,944.4
2018-12-18T00:24:08.111Z,945.1
2018-12-18T00:25:08.635Z,945
2018-12-18T00:26:08.552Z,945
2018-12-18T00:27:08.439Z,945
2018-12-18T00:28:09.353Z,945
2018-12-18T00:29:09.242Z,945
2018-12-18T00:30:09.128Z,944.9
2018-12-18T00:31:09.271Z,945
2018-12-18T00:32:09.168Z,945
2018-12-18T00:33:09.041Z,944.9
2018-12-18T00:34:09.625Z,945
2018-12-18T00:35:09.969Z,945
2018-12-18T00:36:09.897Z,944.9
2018-12-18T00:37:09.804Z,944.8
2018-12-18T00:38:09.705Z,944.9
2018-12-18T00:39:09.601Z,944.9
2018-12-18T00:40:09.753Z,945.1
2018-12-18T00:41:09.657Z,945.2
2018-12-18T00:42:09.547Z,945.1
2018-12-18T00:43:09.431Z,945.2
2018-12-18T00:44:09.336Z,944.9
2018-12-18T00:45:09.641Z,945
2018-12-18T00:46:09.753Z,944.9
2018-12-18T00:47:09.673Z,945
2018-12-18T00:48:09.399Z,945.1
2018-12-18T00:49:09.303Z,945.1
2018-12-18T00:50:09.199Z,945.1
2018-12-18T00:51:08.917Z,945.1
2018-12-18T00:52:08.813Z,945
2018-12-18T00:53:08.561Z,945
2018-12-18T00:54:08.481Z,945.1
2018-12-18T00:55:08.853Z,945.1
2018-12-18T00:56:08.727Z,945
2018-12-18T00:57:08.672Z,945.1
2018-12-18T00:58:08.419Z,945
2018-12-18T00:59:08.329Z,945.1
2018-12-18T01:00:08.239Z,945.1
2018-12-18T01:01:08.137Z,945.1
2018-12-18T01:02:07.867Z,945
2018-12-18T01:03:07.763Z,945.2
2018-12-18T01:04:07.690Z,945.1
2018-12-18T01:05:08.025Z,945.2
2018-12-18T01:06:07.923Z,945.1
2018-12-18T01:07:07.883Z,945.1
2018-12-18T01:08:07.777Z,945.1
2018-12-18T01:09:07.685Z,945
2018-12-18T01:10:07.818Z,945.1
2018-12-18T01:11:07.698Z,945.1
2018-12-18T01:12:07.580Z,945
2018-12-18T01:13:07.694Z,944.9
2018-12-18T01:14:07.649Z,945.2
2018-12-18T01:15:07.979Z,945
2018-12-18T01:16:07.914Z,945.1
2018-12-18T01:17:07.797Z,945.1
2018-12-18T01:18:07.693Z,945
2018-12-18T01:19:08.370Z,945.1
2018-12-18T01:20:08.250Z,945.1
2018-12-18T01:21:08.151Z,945.1
2018-12-18T01:22:08.035Z,944.9
2018-12-18T01:23:08.162Z,945.1
2018-12-18T01:24:08.029Z,945.1
2018-12-18T01:25:08.360Z,945
2018-12-18T01:26:08.262Z,945.1
2018-12-18T01:27:08.142Z,945.1
2018-12-18T01:28:08.040Z,945
2018-12-18T01:29:07.932Z,945
2018-12-18T01:30:07.853Z,945.1
2018-12-18T01:31:07.757Z,945.1
2018-12-18T01:32:07.666Z,945.1
2018-12-18T01:33:07.563Z,945.1
2018-12-18T01:34:07.486Z,945
2018-12-18T01:35:08.316Z,945.1
2018-12-18T01:36:08.193Z,945.1
2018-12-18T01:37:08.076Z,945.1
2018-12-18T01:38:08.200Z,945.2
2018-12-18T01:39:08.136Z,945
2018-12-18T01:40:08.052Z,945
2018-12-18T01:41:07.952Z,945.1
2018-12-18T01:42:07.834Z,945.1
2018-12-18T01:43:07.725Z,945
2018-12-18T01:44:07.626Z,945.1
2018-12-18T01:45:07.943Z,945.1
2018-12-18T01:46:07.858Z,945
2018-12-18T01:47:07.967Z,945.1
2018-12-18T01:48:07.843Z,945.1
2018-12-18T01:49:07.721Z,945.1
2018-12-18T01:50:07.883Z,945
2018-12-18T01:51:07.800Z,945.1
2018-12-18T01:52:07.765Z,945.1
2018-12-18T01:53:07.684Z,945.1
2018-12-18T01:54:07.585Z,945.1
2018-12-18T01:55:07.924Z,945.1
2018-12-18T01:56:07.825Z,945
2018-12-18T01:57:07.726Z,945
2018-12-18T01:58:07.603Z,945
2018-12-18T01:59:07.493Z,945.1
2018-12-18T02:00:07.609Z,945
2018-12-18T02:01:07.492Z,945
2018-12-18T02:02:07.395Z,944.8
2018-12-18T02:03:07.282Z,945.1
2018-12-18T02:04:07.236Z,945
2018-12-18T02:05:07.607Z,944.9
2018-12-18T02:06:07.501Z,945
2018-12-18T02:07:07.405Z,945
2018-12-18T02:08:07.609Z,945
2018-12-18T02:09:07.512Z,945
2018-12-18T02:10:07.397Z,945
2018-12-18T02:11:07.293Z,945
2018-12-18T02:12:07.643Z,945
2018-12-18T02:13:07.565Z,944.8
2018-12-18T02:14:07.445Z,944.9
2018-12-18T02:15:07.995Z,944.8
2018-12-18T02:16:07.883Z,944.9
2018-12-18T02:17:08.005Z,944.8
2018-12-18T02:18:07.893Z,944.9
2018-12-18T02:19:07.805Z,944.7
2018-12-18T02:20:07.701Z,944.9
2018-12-18T02:21:07.677Z,944.9
2018-12-18T02:22:07.573Z,944.9
2018-12-18T02:23:07.447Z,944.8
2018-12-18T02:24:07.577Z,945
2018-12-18T02:25:07.886Z,944.9
2018-12-18T02:26:07.777Z,944.9
2018-12-18T02:27:07.663Z,944.8
2018-12-18T02:28:07.571Z,944.7
2018-12-18T02:29:07.320Z,944.8
2018-12-18T02:30:07.282Z,944.8
2018-12-18T02:31:07.021Z,944.8
2018-12-18T02:32:06.754Z,944.8
2018-12-18T02:33:06.487Z,944.7
2018-12-18T02:34:14.236Z,944.8
2018-12-18T02:35:14.819Z,944.8
2018-12-18T02:36:14.714Z,944.8
2018-12-18T02:37:14.633Z,944.8
2018-12-18T02:38:14.535Z,944.8
2018-12-18T02:39:14.468Z,944.8
2018-12-18T02:40:14.374Z,944.8
2018-12-18T02:41:14.563Z,944.8
2018-12-18T02:42:14.447Z,944.8
2018-12-18T02:43:14.332Z,944.8
2018-12-18T02:44:14.229Z,944.6
2018-12-18T02:45:14.651Z,944.6
2018-12-18T02:46:14.554Z,944.7
2018-12-18T02:47:14.437Z,944.7
2018-12-18T02:48:14.340Z,944.7
2018-12-18T02:49:14.256Z,944.5
2018-12-18T02:50:14.892Z,944.8
2018-12-18T02:51:14.806Z,944.8
2018-12-18T02:52:14.775Z,944.8
2018-12-18T02:53:14.670Z,944.7
2018-12-18T02:54:14.806Z,944.5
2018-12-18T02:55:15.129Z,944.5
2018-12-18T02:56:15.006Z,944.7
2018-12-18T02:57:14.909Z,944.6
2018-12-18T02:58:14.809Z,944.7
2018-12-18T02:59:14.709Z,944.7
2018-12-18T03:00:14.624Z,944.6
2018-12-18T03:01:14.553Z,944.5
2018-12-18T03:02:14.459Z,944.6
2018-12-18T03:03:14.374Z,944.4
2018-12-18T03:04:22.673Z,944.6
2018-12-18T03:05:23.044Z,944.6
2018-12-18T03:06:22.966Z,944.5
2018-12-18T03:07:22.855Z,944.7
2018-12-18T03:08:22.743Z,944.5
2018-12-18T03:09:22.698Z,943.1
2018-12-18T03:10:22.431Z,944.6
2018-12-18T03:11:22.194Z,944.5
2018-12-18T03:12:21.923Z,944.6
2018-12-18T03:13:21.662Z,944.6
2018-12-18T03:14:21.418Z,944.6
2018-12-18T03:15:21.728Z,944.6
2018-12-18T03:16:21.634Z,944.6
2018-12-18T03:17:21.590Z,944.7
2018-12-18T03:18:21.468Z,944.6
2018-12-18T03:19:21.360Z,944.6
2018-12-18T03:20:21.234Z,944.5
2018-12-18T03:21:21.170Z,944.5
2018-12-18T03:22:21.090Z,944.5
2018-12-18T03:23:21.008Z,944.5
2018-12-18T03:24:20.894Z,944.6
2018-12-18T03:25:21.192Z,944.5
2018-12-18T03:26:21.108Z,944.5
2018-12-18T03:27:21.005Z,944.4
2018-12-18T03:28:20.918Z,944.5
2018-12-18T03:29:20.831Z,944.5
2018-12-18T03:30:20.612Z,944.5
2018-12-18T03:31:20.514Z,944.4
2018-12-18T03:32:20.315Z,944.5
2018-12-18T03:33:20.059Z,944.4
2018-12-18T03:34:19.786Z,944.3
2018-12-18T03:35:20.158Z,944.4
2018-12-18T03:36:20.271Z,944.4
2018-12-18T03:37:20.165Z,944.4
2018-12-18T03:38:20.076Z,944.4
2018-12-18T03:39:20.224Z,944.2
2018-12-18T03:40:20.130Z,944.2
2018-12-18T03:41:20.030Z,944.2
2018-12-18T03:42:19.923Z,944.4
2018-12-18T03:43:19.840Z,944.3
2018-12-18T03:44:19.726Z,944.3
2018-12-18T03:45:20.337Z,944.3
2018-12-18T03:46:20.243Z,944.3
2018-12-18T03:47:20.148Z,944.3
2018-12-18T03:48:20.057Z,944.3
2018-12-18T03:49:19.972Z,944.1
2018-12-18T03:50:19.868Z,944.2
2018-12-18T03:51:19.754Z,944.3
2018-12-18T03:52:19.919Z,943.6
2018-12-18T03:53:19.834Z,944.2
2018-12-18T03:54:19.794Z,944.2
2018-12-18T03:55:20.368Z,944.2
2018-12-18T03:56:20.261Z,944.2
2018-12-18T03:57:20.144Z,944.2
2018-12-18T03:58:20.048Z,944.2
2018-12-18T03:59:19.964Z,944.1
2018-12-18T04:00:19.842Z,944
2018-12-18T04:01:19.732Z,944
2018-12-18T04:02:19.647Z,944.1
2018-12-18T04:03:19.536Z,944.1
2018-12-18T04:04:19.428Z,944
2018-12-18T04:05:19.870Z,944.1
2018-12-18T04:06:19.782Z,944.1
2018-12-18T04:07:19.518Z,944.1
2018-12-18T04:08:19.422Z,944
2018-12-18T04:09:19.160Z,944
2018-12-18T04:10:18.932Z,944.1
2018-12-18T04:11:18.682Z,944
2018-12-18T04:12:18.414Z,944
2018-12-18T04:13:18.144Z,944.1
2018-12-18T04:14:17.903Z,942.6
2018-12-18T04:15:18.218Z,943.9
2018-12-18T04:16:18.219Z,943.9
2018-12-18T04:17:18.144Z,944
2018-12-18T04:18:18.049Z,944.1
2018-12-18T04:19:17.955Z,944
2018-12-18T04:20:17.850Z,944
2018-12-18T04:21:17.793Z,944.1
2018-12-18T04:22:17.695Z,944
2018-12-18T04:23:17.599Z,944.1
2018-12-18T04:24:17.537Z,944
2018-12-18T04:25:17.884Z,944
2018-12-18T04:26:17.787Z,944.1
2018-12-18T04:27:17.921Z,944.1
2018-12-18T04:28:17.812Z,944.1
2018-12-18T04:29:17.547Z,944.1
2018-12-18T04:30:17.279Z,944.1
2018-12-18T04:31:17.011Z,944.1
2018-12-18T04:32:16.797Z,944
2018-12-18T04:33:16.548Z,944
2018-12-18T04:34:16.300Z,943.9
2018-12-18T04:35:16.460Z,944.1
2018-12-18T04:36:16.198Z,943.9
2018-12-18T04:37:15.920Z,943.9
2018-12-18T04:38:15.835Z,944.1
2018-12-18T04:39:15.559Z,944
2018-12-18T04:40:15.447Z,944.1
2018-12-18T04:41:15.173Z,944.1
2018-12-18T04:42:15.079Z,944.2
2018-12-18T04:43:14.818Z,944
2018-12-18T04:44:14.547Z,944.1
2018-12-18T04:45:16.733Z,944.1
2018-12-18T04:46:16.651Z,944.1
2018-12-18T04:47:16.525Z,944.1
2018-12-18T04:48:16.428Z,944.2
2018-12-18T04:49:16.307Z,944.2
2018-12-18T04:50:16.197Z,944.2
2018-12-18T04:51:16.102Z,944.1
2018-12-18T04:52:16.013Z,944.2
2018-12-18T04:53:15.901Z,944
2018-12-18T04:54:15.823Z,944.1
2018-12-18T04:55:16.148Z,944.2
2018-12-18T04:56:16.053Z,944.2
2018-12-18T04:57:15.928Z,944.1
2018-12-18T04:58:15.819Z,944.2
2018-12-18T04:59:15.536Z,944.1
2018-12-18T05:00:15.308Z,944.3
2018-12-18T05:01:15.040Z,944.1
2018-12-18T05:02:14.780Z,944.2
2018-12-18T05:03:14.546Z,944.1
2018-12-18T05:04:14.287Z,944.1
2018-12-18T05:05:20.771Z,944.1
2018-12-18T05:06:20.662Z,944.1
2018-12-18T05:07:20.425Z,944.1
2018-12-18T05:08:20.142Z,944.1
2018-12-18T05:09:19.872Z,944.1
2018-12-18T05:10:19.622Z,944.1
2018-12-18T05:11:19.576Z,944.1
2018-12-18T05:12:19.301Z,943.9
2018-12-18T05:13:19.204Z,943.9
2018-12-18T05:14:18.950Z,944
2018-12-18T05:15:19.282Z,944.1
2018-12-18T05:16:19.207Z,944.1
2018-12-18T05:17:19.092Z,944.1
2018-12-18T05:18:18.996Z,944.2
2018-12-18T05:19:18.894Z,944.1
2018-12-18T05:20:18.830Z,944.1
2018-12-18T05:21:18.718Z,944
2018-12-18T05:22:18.605Z,944.1
2018-12-18T05:23:18.500Z,944.1
2018-12-18T05:24:18.410Z,944.1
2018-12-18T05:25:18.740Z,944
2018-12-18T05:26:18.636Z,944.1
2018-12-18T05:27:18.534Z,944.1
2018-12-18T05:28:18.428Z,944.2
2018-12-18T05:29:18.320Z,944.1
2018-12-18T05:30:18.194Z,944
2018-12-18T05:31:20.850Z,944.1
2018-12-18T05:32:20.758Z,944.1
2018-12-18T05:33:20.685Z,944.1
2018-12-18T05:34:20.587Z,943.9
2018-12-18T05:35:26.995Z,944.1
2018-12-18T05:36:26.911Z,944.1
2018-12-18T05:37:26.821Z,944
2018-12-18T05:38:26.737Z,944
2018-12-18T05:39:26.454Z,944
2018-12-18T05:40:26.188Z,944
2018-12-18T05:41:25.907Z,944.1
2018-12-18T05:42:25.623Z,944
2018-12-18T05:43:25.376Z,944
2018-12-18T05:44:25.126Z,944
2018-12-18T05:45:25.493Z,944
2018-12-18T05:46:25.390Z,944.1
2018-12-18T05:47:25.286Z,944
2018-12-18T05:48:25.420Z,944.1
2018-12-18T05:49:25.305Z,944
2018-12-18T05:50:25.223Z,944.1
2018-12-18T05:51:25.104Z,944.1
2018-12-18T05:52:25.027Z,944.1
2018-12-18T05:53:24.920Z,944
2018-12-18T05:54:24.845Z,944.1
2018-12-18T05:55:25.154Z,944.1
2018-12-18T05:56:25.032Z,943.6
2018-12-18T05:57:24.921Z,944.1
2018-12-18T05:58:24.815Z,944
2018-12-18T05:59:24.718Z,944
2018-12-18T06:00:24.611Z,944.1
2018-12-18T06:01:24.527Z,944.1
2018-12-18T06:02:24.419Z,944.1
2018-12-18T06:03:24.299Z,944.1
2018-12-18T06:04:24.226Z,944.1
2018-12-18T06:05:24.555Z,944.2
2018-12-18T06:06:24.439Z,944
2018-12-18T06:07:24.331Z,944.1
2018-12-18T06:08:24.211Z,944.2
2018-12-18T06:09:24.101Z,942.9
2018-12-18T06:10:23.997Z,944
2018-12-18T06:11:23.907Z,944
2018-12-18T06:12:23.809Z,944
2018-12-18T06:13:23.699Z,944.2
2018-12-18T06:14:23.585Z,944.2
2018-12-18T06:15:23.907Z,944.2
2018-12-18T06:16:23.810Z,944.3
2018-12-18T06:17:23.721Z,944.2
2018-12-18T06:18:23.589Z,944.2
2018-12-18T06:19:23.484Z,944.3
2018-12-18T06:20:23.381Z,944.3
2018-12-18T06:21:23.325Z,944.2
2018-12-18T06:22:23.195Z,944.2
2018-12-18T06:23:23.074Z,944.3
2018-12-18T06:24:22.980Z,944.1
2018-12-18T06:25:23.286Z,944.2
2018-12-18T06:26:23.194Z,944.2
2018-12-18T06:27:23.087Z,944
2018-12-18T06:28:22.981Z,944
2018-12-18T06:29:22.871Z,944.2
2018-12-18T06:30:22.763Z,944.2
2018-12-18T06:31:22.683Z,944.3
2018-12-18T06:32:22.589Z,944.2
2018-12-18T06:33:22.503Z,944
2018-12-18T06:34:22.393Z,944.2
2018-12-18T06:35:22.704Z,944.2
2018-12-18T06:36:22.589Z,944.2
2018-12-18T06:37:22.501Z,944.3
2018-12-18T06:38:22.409Z,944.2
2018-12-18T06:39:22.287Z,944.3
2018-12-18T06:40:22.177Z,944.2
2018-12-18T06:41:22.094Z,944.3
2018-12-18T06:42:21.996Z,944.3
2018-12-18T06:43:21.894Z,944.2
2018-12-18T06:44:21.795Z,944.3
2018-12-18T06:45:22.110Z,944.3
2018-12-18T06:46:22.021Z,944.4
2018-12-18T06:47:21.965Z,944.2
2018-12-18T06:48:21.851Z,944.4
2018-12-18T06:49:21.740Z,944.3
2018-12-18T06:50:21.632Z,944.3
2018-12-18T06:51:21.539Z,944.2
2018-12-18T06:52:21.421Z,943.9
2018-12-18T06:53:21.322Z,944.2
2018-12-18T06:54:21.218Z,944.1
2018-12-18T06:55:21.591Z,944.2
2018-12-18T06:56:21.498Z,944.2
2018-12-18T06:57:21.229Z,944.1
2018-12-18T06:58:20.985Z,944.4
2018-12-18T06:59:20.720Z,944.3
2018-12-18T07:00:20.442Z,944.1
2018-12-18T07:01:20.162Z,944.2
2018-12-18T07:02:19.883Z,944.2
2018-12-18T07:03:19.635Z,944.1
2018-12-18T07:04:19.356Z,944.2
2018-12-18T07:05:19.477Z,944.3
2018-12-18T07:06:19.200Z,944.2
2018-12-18T07:07:18.956Z,943.8
2018-12-18T07:08:18.697Z,944.2
2018-12-18T07:09:18.487Z,944.2
2018-12-18T07:10:18.208Z,944.2
2018-12-18T07:11:17.926Z,944.2
2018-12-18T07:12:17.700Z,944.2
2018-12-18T07:13:17.626Z,944.1
2018-12-18T07:14:17.349Z,944
2018-12-18T07:15:17.633Z,944.1
2018-12-18T07:16:17.601Z,944.1
2018-12-18T07:17:17.500Z,943.5
2018-12-18T07:18:17.384Z,944
2018-12-18T07:19:17.310Z,943.3
2018-12-18T07:20:17.200Z,944.1
2018-12-18T07:21:17.099Z,943.9
2018-12-18T07:22:16.990Z,944.1
2018-12-18T07:23:16.894Z,944.2
2018-12-18T07:24:16.807Z,944
2018-12-18T07:25:17.101Z,944.2
2018-12-18T07:26:17.003Z,944.2
2018-12-18T07:27:16.740Z,942.7
2018-12-18T07:28:16.621Z,944
2018-12-18T07:29:16.514Z,944.2
2018-12-18T07:30:16.265Z,944.1
2018-12-18T07:31:15.998Z,944.2
2018-12-18T07:32:18.806Z,944.1
2018-12-18T07:33:18.544Z,944.2
2018-12-18T07:34:18.274Z,944.2
2018-12-18T07:35:24.136Z,944.2
2018-12-18T07:36:23.856Z,942.7
2018-12-18T07:37:23.578Z,944.2
2018-12-18T07:38:23.306Z,944.1
2018-12-18T07:39:23.097Z,944.1
2018-12-18T07:40:22.856Z,944.1
2018-12-18T07:41:22.596Z,944.2
2018-12-18T07:42:22.333Z,944.2
2018-12-18T07:43:22.079Z,944.3
2018-12-18T07:44:24.849Z,944.3
2018-12-18T07:45:25.192Z,944.3
2018-12-18T07:46:24.920Z,944.2
2018-12-18T07:47:24.638Z,944.2
2018-12-18T07:48:24.372Z,944.2
2018-12-18T07:49:24.124Z,944.3
2018-12-18T07:50:23.860Z,943.3
2018-12-18T07:51:23.620Z,944.3
2018-12-18T07:52:23.348Z,944.3
2018-12-18T07:53:23.120Z,944.3
2018-12-18T07:54:22.848Z,944.2
2018-12-18T07:55:23.186Z,944.3
2018-12-18T07:56:23.105Z,944.4
2018-12-18T07:57:22.999Z,944.4
2018-12-18T07:58:22.880Z,942.8
2018-12-18T07:59:22.759Z,944.3
2018-12-18T08:00:22.872Z,944.2
2018-12-18T08:01:22.788Z,944.2
2018-12-18T08:02:22.696Z,944.1
2018-12-18T08:03:22.577Z,944.3
2018-12-18T08:04:22.486Z,944.3
2018-12-18T08:05:22.789Z,944.4
2018-12-18T08:06:22.735Z,942.6
2018-12-18T08:07:22.641Z,944.2
2018-12-18T08:08:22.536Z,942.6
2018-12-18T08:09:22.442Z,944.3
2018-12-18T08:10:22.353Z,944.3
2018-12-18T08:11:22.246Z,944.2
2018-12-18T08:12:22.154Z,942.6
2018-12-18T08:13:22.059Z,944.1
2018-12-18T08:14:21.957Z,944
2018-12-18T08:15:22.282Z,944.1
2018-12-18T08:16:22.192Z,944.2
2018-12-18T08:17:22.087Z,944.1
2018-12-18T08:18:21.985Z,944
2018-12-18T08:19:21.888Z,944.1
2018-12-18T08:20:21.766Z,944.1
2018-12-18T08:21:21.662Z,944.1
2018-12-18T08:22:21.569Z,944
2018-12-18T08:23:21.488Z,943.9
2018-12-18T08:24:21.387Z,944.1
2018-12-18T08:25:21.723Z,943.9
2018-12-18T08:26:21.591Z,944
2018-12-18T08:27:21.514Z,943.8
2018-12-18T08:28:21.430Z,943.8
2018-12-18T08:29:21.308Z,944
2018-12-18T08:30:21.237Z,943.8
2018-12-18T08:31:21.148Z,943.9
2018-12-18T08:32:21.052Z,943.9
2018-12-18T08:33:20.977Z,944
2018-12-18T08:34:21.119Z,943.8
2018-12-18T08:35:21.414Z,943.9
2018-12-18T08:36:21.321Z,943.9
2018-12-18T08:37:21.221Z,943.9
2018-12-18T08:38:21.109Z,943.9
2018-12-18T08:39:20.994Z,943.9
2018-12-18T08:40:20.881Z,943.9
2018-12-18T08:41:20.788Z,943.7
2018-12-18T08:42:23.407Z,943.9
2018-12-18T08:43:23.296Z,943.8
2018-12-18T08:44:23.198Z,943.9
2018-12-18T08:45:23.514Z,943.8
2018-12-18T08:46:23.439Z,943.8
2018-12-18T08:47:23.356Z,943.8
2018-12-18T08:48:23.243Z,943.8
2018-12-18T08:49:23.133Z,943.8
2018-12-18T08:50:23.021Z,942
2018-12-18T08:51:22.911Z,943.5
2018-12-18T08:52:22.801Z,943.7
2018-12-18T08:53:22.685Z,943.6
2018-12-18T08:54:22.568Z,943.6
2018-12-18T08:55:22.903Z,943.6
2018-12-18T08:56:22.860Z,943.6
2018-12-18T08:57:22.748Z,943.5
2018-12-18T08:58:22.655Z,943.5
2018-12-18T08:59:22.553Z,943.4
2018-12-18T09:00:22.441Z,943.6
2018-12-18T09:01:22.350Z,943.5
2018-12-18T09:02:22.253Z,943.5
2018-12-18T09:03:22.140Z,943.5
2018-12-18T09:04:22.041Z,943.4
2018-12-18T09:05:22.608Z,942.1
2018-12-18T09:06:22.503Z,943.4
2018-12-18T09:07:22.401Z,943.3
2018-12-18T09:08:22.286Z,943.5
2018-12-18T09:09:22.197Z,943.5
2018-12-18T09:10:22.073Z,943.5
2018-12-18T09:11:21.941Z,943.5
2018-12-18T09:12:21.836Z,943.5
2018-12-18T09:13:21.754Z,943.5
2018-12-18T09:14:21.726Z,943.5
2018-12-18T09:15:22.064Z,941.8
2018-12-18T09:16:21.953Z,943.4
2018-12-18T09:17:21.865Z,943.5
2018-12-18T09:18:21.763Z,943.3
2018-12-18T09:19:21.675Z,943.3
2018-12-18T09:20:21.586Z,943.3
2018-12-18T09:21:21.503Z,943.4
2018-12-18T09:22:21.417Z,943.5
2018-12-18T09:23:21.325Z,943.5
2018-12-18T09:24:21.228Z,943.6
2018-12-18T09:25:21.525Z,943.5
2018-12-18T09:26:21.408Z,943.3
2018-12-18T09:27:21.325Z,943.5
2018-12-18T09:28:21.259Z,943.4
2018-12-18T09:29:21.220Z,943.4
2018-12-18T09:30:21.105Z,943.4
2018-12-18T09:31:21.005Z,943.4
2018-12-18T09:32:20.930Z,943.2
2018-12-18T09:33:20.906Z,943.4
2018-12-18T09:34:20.872Z,943.4
2018-12-18T09:35:21.174Z,943.3
2018-12-18T09:36:21.073Z,943.2
2018-12-18T09:37:20.992Z,943.2
2018-12-18T09:38:20.882Z,943.2
2018-12-18T09:39:20.742Z,943.2
2018-12-18T09:40:20.658Z,943.1
2018-12-18T09:41:20.544Z,943.2
2018-12-18T09:42:20.427Z,943.1
2018-12-18T09:43:20.322Z,943.1
2018-12-18T09:44:20.208Z,942.9
2018-12-18T09:45:20.570Z,943
2018-12-18T09:46:20.469Z,943.1
2018-12-18T09:47:20.365Z,943.1
2018-12-18T09:48:20.286Z,943.1
2018-12-18T09:49:20.192Z,943
2018-12-18T09:50:20.098Z,943
2018-12-18T09:51:19.990Z,942.9
2018-12-18T09:52:19.878Z,943
2018-12-18T09:53:19.760Z,942.9
2018-12-18T09:54:19.666Z,943
2018-12-18T09:55:19.984Z,942.9
2018-12-18T09:56:19.896Z,943
2018-12-18T09:57:20.004Z,942.8
2018-12-18T09:58:19.896Z,942.9
2018-12-18T09:59:19.806Z,942.8
2018-12-18T10:00:19.698Z,942.9
2018-12-18T10:01:19.576Z,942.8
2018-12-18T10:02:19.479Z,942.8
2018-12-18T10:03:19.434Z,942.7
2018-12-18T10:04:19.349Z,942.7
2018-12-18T10:05:19.656Z,942.7
2018-12-18T10:06:19.558Z,942.7
2018-12-18T10:07:19.461Z,942.7
2018-12-18T10:08:19.340Z,941.2
2018-12-18T10:09:19.222Z,942.5
2018-12-18T10:10:19.133Z,942.5
2018-12-18T10:11:19.024Z,942.7
2018-12-18T10:12:18.913Z,942.7
2018-12-18T10:13:18.798Z,942.7
2018-12-18T10:14:18.714Z,942.7
2018-12-18T10:15:19.076Z,941.1
2018-12-18T10:16:18.969Z,942.7
2018-12-18T10:17:18.861Z,942.7
2018-12-18T10:18:18.742Z,942.7
2018-12-18T10:19:18.645Z,942.7
2018-12-18T10:20:18.601Z,942.4
2018-12-18T10:21:18.501Z,942.6
2018-12-18T10:22:18.410Z,942.6
2018-12-18T10:23:18.296Z,942.5
2018-12-18T10:24:18.220Z,942.6
2018-12-18T10:25:18.591Z,942.6
2018-12-18T10:26:18.463Z,942.5
2018-12-18T10:27:18.382Z,942.6
2018-12-18T10:28:18.278Z,942.6
2018-12-18T10:29:18.190Z,942.5
2018-12-18T10:30:18.073Z,942.6
2018-12-18T10:31:18.000Z,942.4
2018-12-18T10:32:17.945Z,942.3
2018-12-18T10:33:18.052Z,942.4
2018-12-18T10:34:17.946Z,942.4
2018-12-18T10:35:18.285Z,942.4
2018-12-18T10:36:18.397Z,942.5
2018-12-18T10:37:18.309Z,942.5
2018-12-18T10:38:18.222Z,942.4
2018-12-18T10:39:18.139Z,942.4
2018-12-18T10:40:18.022Z,942.4
2018-12-18T10:41:17.967Z,942.3
2018-12-18T10:42:17.888Z,942.3
2018-12-18T10:43:17.775Z,942.3
2018-12-18T10:44:17.677Z,942.3
2018-12-18T10:45:18.008Z,942.3
2018-12-18T10:46:17.897Z,942.2
2018-12-18T10:47:17.810Z,942.2
2018-12-18T10:48:17.705Z,942.3
2018-12-18T10:49:17.603Z,942.2
2018-12-18T10:50:17.501Z,942.1
2018-12-18T10:51:17.392Z,942.2
2018-12-18T10:52:17.344Z,942.2
2018-12-18T10:53:17.336Z,942.2
2018-12-18T10:54:17.216Z,942.2
2018-12-18T10:55:17.563Z,942.2
2018-12-18T10:56:17.447Z,942.1
2018-12-18T10:57:17.365Z,942.2
2018-12-18T10:58:24.591Z,942
2018-12-18T10:59:24.512Z,942.1
2018-12-18T11:00:24.385Z,941.9
2018-12-18T11:01:24.324Z,942.2
2018-12-18T11:02:24.251Z,942.1
2018-12-18T11:03:24.130Z,942.2
2018-12-18T11:04:24.011Z,941.9
2018-12-18T11:05:24.407Z,942.1
2018-12-18T11:06:24.299Z,942.1
2018-12-18T11:07:24.211Z,942.1
2018-12-18T11:08:24.111Z,942
2018-12-18T11:09:24.027Z,942
2018-12-18T11:10:23.928Z,942
2018-12-18T11:11:23.835Z,942.1
2018-12-18T11:12:23.761Z,942
2018-12-18T11:13:23.657Z,941.9
2018-12-18T11:14:23.645Z,941.9
2018-12-18T11:15:23.999Z,942
2018-12-18T11:16:23.906Z,942
2018-12-18T11:17:23.815Z,942
2018-12-18T11:18:23.804Z,941.9
2018-12-18T11:19:23.696Z,941.8
2018-12-18T11:20:23.589Z,941.8
2018-12-18T11:21:23.495Z,942
2018-12-18T11:22:23.371Z,942
2018-12-18T11:23:23.255Z,942
2018-12-18T11:24:23.403Z,942
2018-12-18T11:25:23.729Z,941.8
2018-12-18T11:26:23.619Z,941.9
2018-12-18T11:27:23.515Z,941.8
2018-12-18T11:28:23.411Z,941.8
2018-12-18T11:29:23.316Z,941.8
2018-12-18T11:30:23.225Z,941.9
2018-12-18T11:31:26.107Z,941.9
2018-12-18T11:32:26.007Z,941.8
2018-12-18T11:33:25.909Z,941.7
2018-12-18T11:34:25.837Z,941.6
2018-12-18T11:35:26.169Z,941.6
2018-12-18T11:36:28.623Z,941.7
2018-12-18T11:37:28.519Z,941.7
2018-12-18T11:38:28.403Z,941.8
2018-12-18T11:39:28.325Z,941.7
2018-12-18T11:40:28.241Z,941.5
2018-12-18T11:41:28.134Z,941.7
2018-12-18T11:42:28.050Z,941.6
2018-12-18T11:43:27.939Z,941.7
2018-12-18T11:44:27.843Z,941.7
2018-12-18T11:45:28.261Z,941.5
2018-12-18T11:46:28.160Z,941.7
2018-12-18T11:47:28.049Z,941.6
2018-12-18T11:48:27.923Z,941.6
2018-12-18T11:49:27.815Z,941.6
2018-12-18T11:50:27.759Z,941.5
2018-12-18T11:51:27.673Z,941.6
2018-12-18T11:52:27.605Z,941.4
2018-12-18T11:53:27.526Z,941.5
2018-12-18T11:54:27.425Z,940.5
2018-12-18T11:55:27.735Z,940.1
2018-12-18T11:56:27.653Z,941.5
2018-12-18T11:57:27.563Z,941.5
2018-12-18T11:58:27.464Z,941.5
2018-12-18T11:59:27.347Z,941.3
2018-12-18T12:00:27.923Z,941.4
2018-12-18T12:01:27.824Z,941.4
2018-12-18T12:02:27.710Z,941.4
2018-12-18T12:03:27.822Z,941.3
2018-12-18T12:04:27.700Z,941.4
2018-12-18T12:05:28.025Z,941.4
2018-12-18T12:06:27.945Z,941.4
2018-12-18T12:07:27.850Z,941.3
2018-12-18T12:08:27.740Z,941.4
2018-12-18T12:09:27.631Z,941.3
2018-12-18T12:10:27.593Z,941.2
2018-12-18T12:11:27.521Z,941.2
2018-12-18T12:12:27.411Z,941.2
2018-12-18T12:13:27.287Z,941.2
2018-12-18T12:14:27.169Z,941.2
2018-12-18T12:15:27.703Z,941.1
2018-12-18T12:16:27.587Z,941.1
2018-12-18T12:17:27.523Z,941.1
2018-12-18T12:18:27.404Z,941.1
2018-12-18T12:19:27.297Z,941.2
2018-12-18T12:20:27.410Z,941.1
2018-12-18T12:21:27.307Z,941.1
2018-12-18T12:22:27.206Z,941.1
2018-12-18T12:23:27.107Z,941
2018-12-18T12:24:27.008Z,941
2018-12-18T12:25:27.623Z,941
2018-12-18T12:26:28.517Z,941
2018-12-18T12:27:28.404Z,941
2018-12-18T12:28:28.315Z,940.9
2018-12-18T12:29:28.197Z,940.9
2018-12-18T12:30:28.073Z,940.9
2018-12-18T12:31:27.983Z,940.8
2018-12-18T12:32:27.879Z,940.7
2018-12-18T12:33:28.021Z,940.8
2018-12-18T12:34:27.949Z,940.7
2018-12-18T12:35:28.351Z,940.7
2018-12-18T12:36:33.622Z,940.6
2018-12-18T12:37:33.511Z,940.7
2018-12-18T12:38:33.443Z,940.5
2018-12-18T12:39:33.329Z,940.7
2018-12-18T12:40:33.222Z,940.7
2018-12-18T12:41:33.127Z,940.7
2018-12-18T12:42:33.017Z,940.7
2018-12-18T12:43:32.903Z,940.7
2018-12-18T12:44:32.827Z,940.7
2018-12-18T12:45:33.399Z,940.7
2018-12-18T12:46:33.359Z,940.7
2018-12-18T12:47:33.251Z,940.7
2018-12-18T12:48:33.151Z,940.7
2018-12-18T12:49:33.125Z,940.4
2018-12-18T12:50:33.042Z,940.7
2018-12-18T12:51:32.948Z,940.7
2018-12-18T12:52:32.861Z,940.8
2018-12-18T12:53:32.749Z,940.7
2018-12-18T12:54:32.651Z,940.4
2018-12-18T12:55:32.984Z,940.6
2018-12-18T12:56:32.879Z,940.6
2018-12-18T12:57:32.854Z,940.5
2018-12-18T12:58:32.765Z,940.6
2018-12-18T12:59:32.673Z,940.7
2018-12-18T13:00:32.664Z,940.4